Flight Track Log - Related Links

Times and Time Zones

All times are in EDT time to prevent confusion due to time zone crossing. See the N546LM flight status page for this flight to view local times or setup timezone preferences in your user account.

Time Position Orientation Groundspeed Altitude Reporting Facility
EDT Latitude Longitude Course Direction KTS MPH feet Rate Location/Type
Thu 08:45:12 PM 60.5500 -151.1333 68° East 180 207 4,500  Level Anchorage Center
Thu 08:46:12 PM 60.5500 -151.0333 90° East 180 207 6,700 1,250 Climbing Anchorage Center
Thu 08:47:12 PM 60.5833 -150.9333 56° Northeast 210 242 7,000 149 Climbing Anchorage Center
Thu 08:48:00 PM 60.7890 -150.8054 46° Northeast  Level Estimated
Thu 08:48:13 PM 60.6333 -150.8833 26° Northeast 220 253 7,000  Level Anchorage Center
Thu 08:49:00 PM 60.8319 -150.7168 50° Northeast  Level Estimated
Thu 08:50:00 PM 60.7187 -150.7462 44° Northeast  Level Estimated
Thu 08:57:00 PM 61.0616 -150.2101 44° Northeast  Level FlightAware Approximate
Thu 08:58:00 PM 61.1054 -150.1225 44° Northeast  Level FlightAware Approximate
Thu 08:59:00 PM 61.1467 -150.0299 48° Northeast  Level FlightAware Approximate
Thu 09:00:00 PM 61.1667 -149.9833 48° Northeast  Level FlightAware Approximate
Thu 09:01:00 PM 61.1741 -149.9982 48° Northeast  Level Estimated
Thu 09:02:00 PM 61.1741 -149.9982 48° Northeast  Level Estimated
Thu 09:03:00 PM 61.1741 -149.9982 48° Northeast  Level Estimated
Thu 09:04:00 PM 61.1741 -149.9982 48° Northeast  Level Estimated
Thu 09:05:00 PM 61.1741 -149.9982 48° Northeast  Level Estimated
Thu 09:06:00 PM 61.1741 -149.9982 48° Northeast  Level Estimated
Thu 09:07:00 PM 61.1741 -149.9982 48° Northeast  Level Estimated
Thu 09:08:00 PM 61.1741 -149.9982 48° Northeast  Level Estimated
Thu 09:09:00 PM 61.1741 -149.9982 48° Northeast  Level Estimated
Thu 09:10:00 PM 61.1741 -149.9982 48° Northeast  Level Estimated
Thu 09:11:00 PM 61.1741 -149.9982 48° Northeast  Level Estimated
Thu 09:12:00 PM 61.1741 -149.9982 48° Northeast  Level Estimated

Login

Don't have an account? Register now (free) for customized features, flight alerts, and more!